• Join FlightAware (Why Join?)
  • Login
  • US Flag 
03:37PM EDT


 

Airport Tracker/Info


-or-


 

Live Flight TrackerFlight Track Log ✈ AWE4087 ✈ 12-May-2013 ✈ KMHT - KDCA

Flight Track Log - Related Links

Times and Time Zones

All times are in EDT time to prevent confusion due to time zone crossing. See the AWE4087 flight status page for this flight to view local times or setup timezone preferences in your user account.

Time Position Orientation Groundspeed Altitude Reporting Facility
EDT Latitude Longitude Course Direction KTS MPH feet Rate Location/Type
06:26AM 42.9500 -71.4167 144° Southeast 164 189 800  Level KA90
06:27AM 42.9833 -71.4000 20° North 167 192 2,100 1,860 Climbing KA90
06:28AM 43.0333 -71.3500 36° Northeast 230 265 4,000 1,800 Climbing KA90
06:29AM 43.0331 -71.1344 71° East  Level FlightAware Approximate
06:30AM 43.0712 -71.0320 71° East  Level FlightAware Approximate
06:30AM 43.0519 -71.1758 82° East 295 339 7,100  Level Boston Center
06:31AM 43.0518 -70.9360 132° Southeast  Level FlightAware Approximate
06:31AM 43.0736 -71.0617 75° East 295 339 9,300  Level Boston Center
06:32AM 42.9840 -70.8673 144° Southeast  Level FlightAware Approximate
06:32AM 43.0556 -70.9539 103° East 287 330 11,100  Level Boston Center
06:33AM 42.9797 -70.8961 151° Southeast 269 310 13,300 1,800 Climbing Boston Center
06:34AM 42.9050 -70.9236 195° South 244 281 14,800 1,500 Climbing Boston Center
06:35AM 42.8325 -70.9567 198° South 282 325 16,300 1,500 Climbing Boston Center
06:36AM 42.7414 -71.0011 200° South 311 358 17,900 1,800 Climbing Boston Center
06:37AM 42.6628 -71.0397 200° South 318 366 20,000 1,800 Climbing Boston Center
06:38AM 42.5839 -71.0808 201° Southwest 311 358 21,600 1,260 Climbing Boston Center
06:39AM 42.5053 -71.1192 200° South 305 351 22,600 1,080 Climbing Boston Center
06:40AM 42.4286 -71.1631 203° Southwest 305 351 23,800 1,080 Climbing Boston Center
06:41AM 42.3922 -71.2622 244° Southwest 287 330 24,800 1,020 Climbing Boston Center
06:42AM 42.3578 -71.3669 246° West 293 337 25,900 900 Climbing Boston Center
06:43AM 42.3256 -71.4742 248° West 305 351 26,700 900 Climbing Boston Center
06:44AM 42.2928 -71.5728 246° West 318 366 27,700 780 Climbing Boston Center
06:45AM 42.2561 -71.6828 246° West 318 366 28,300 840 Climbing Boston Center
06:46AM 42.2214 -71.7953 247° West 318 366 29,400 900 Climbing Boston Center
06:47AM 42.1886 -71.9050 248° West 318 366 30,100 780 Climbing Boston Center
06:48AM 42.1536 -72.0172 247° West 318 366 31,000 720 Climbing Boston Center
06:49AM 42.1208 -72.1267 248° West 318 366 31,600 480 Climbing Boston Center
06:50AM 42.0856 -72.2358 247° West 318 366 32,000 180 Climbing Boston Center
06:51AM 42.0481 -72.3478 246° West 318 366 32,000  Level Boston Center
06:52AM 42.0128 -72.4653 248° West 326 375 32,000  Level Boston Center
06:53AM 41.9772 -72.5825 248° West 336 387 32,000  Level Boston Center
06:54AM 41.9375 -72.6911 244° Southwest 336 387 32,000  Level Boston Center
06:55AM 41.8747 -72.7831 227° Southwest 329 379 32,000  Level Boston Center
06:56AM 41.8119 -72.8661 225° Southwest 329 379 32,000  Level Boston Center
06:57AM 41.7386 -72.9686 226° Southwest 341 392 32,000  Level Boston Center
06:58AM 41.6733 -73.0542 224° Southwest 341 392 32,000  Level Boston Center
06:59AM 41.6125 -73.1397 226° Southwest 334 384 32,000  Level Boston Center
07:01AM 41.4733 -73.3269 225° Southwest 317 365 32,000  Level New York Center
07:02AM 41.4092 -73.4128 225° Southwest 322 371 32,000  Level New York Center
07:03AM 41.3444 -73.5014 226° Southwest 322 371 32,000  Level New York Center
07:04AM 41.2842 -73.5875 227° Southwest 322 371 32,000  Level New York Center
07:05AM 41.2236 -73.6842 230° Southwest 328 377 32,000  Level New York Center
07:06AM 41.1692 -73.7783 232° Southwest 333 383 32,000  Level New York Center
07:07AM 41.1083 -73.8747 230° Southwest 338 389 32,000 -180 Level New York Center
07:08AM 41.0536 -73.9711 233° Southwest 338 389 31,700 -660 Descending New York Center
07:09AM 40.9969 -74.0675 232° Southwest 338 389 30,700 -1,020 Descending New York Center
07:10AM 40.9378 -74.1633 231° Southwest 338 389 29,700 -900 Descending New York Center
07:11AM 40.8814 -74.2483 229° Southwest 338 389 28,900 -900 Descending New York Center
07:12AM 40.8242 -74.3442 232° Southwest 338 389 28,000 -480 Descending New York Center
07:13AM 40.7692 -74.4372 232° Southwest 338 389 28,000 -240 Level New York Center
07:14AM 40.7122 -74.5272 230° Southwest 338 389 27,600 -780 Descending New York Center
07:15AM 40.6572 -74.6228 233° Southwest 338 389 26,500 -1,140 Descending New York Center
07:16AM 40.6181 -74.7300 244° Southwest 333 383 25,400 -1,140 Descending New York Center
07:17AM 40.5772 -74.8339 243° Southwest 328 377 24,300 -720 Descending New York Center
07:18AM 40.5400 -74.9383 245° Southwest 323 372 24,000 -180 Descending New York Center
07:19AM 40.4989 -75.0450 243° Southwest 323 372 24,000 -480 Level New York Center
07:20AM 40.4575 -75.1489 242° Southwest 323 372 23,100 -1,020 Descending New York Center
07:21AM 40.4136 -75.2606 243° Southwest 329 379 22,000 -600 Descending New York Center
07:22AM 40.3581 -75.3522 232° Southwest 329 379 22,000  Level New York Center
07:23AM 40.2733 -75.4364 217° Southwest 353 406 22,000  Level New York Center
07:24AM 40.2033 -75.5186 222° Southwest 347 399 22,000  Level New York Center
07:25AM 40.1353 -75.6036 224° Southwest 342 394 22,000 -300 Level New York Center
07:26AM 40.0675 -75.6831 222° Southwest 337 388 21,400 -900 Descending New York Center
07:27AM 40.0036 -75.7625 224° Southwest 332 382 20,200 -1,200 Descending New York Center
07:28AM 39.9358 -75.8417 222° Southwest 326 375 19,000 -1,140 Descending New York Center
07:30AM 39.8396 -75.9171 211° Southwest  Level FlightAware Approximate
07:33AM 39.6167 -76.2333 213° Southwest 333 383 13,700  Level Potomac TRACON
07:35AM 39.5212 -76.3351 210° Southwest  Level Estimated
07:35AM 39.4667 -76.4000 210° Southwest 335 386 12,100  Level Potomac TRACON
07:36AM 39.3833 -76.4833 218° Southwest 342 394 11,400 -720 Descending Potomac TRACON
07:37AM 39.3882 -76.4618 218° Southwest  Level FlightAware Approximate
07:37AM 39.3000 -76.5500 212° Southwest 340 391 10,700  Level Potomac TRACON
07:38AM 39.3153 -76.5244 213° Southwest  Level FlightAware Approximate
07:38AM 39.2333 -76.6167 218° Southwest 342 394 10,100  Level Potomac TRACON
07:39AM 39.1500 -76.7000 218° Southwest 328 377 10,000 -60 Descending Potomac TRACON
07:40AM 39.0833 -76.7667 218° Southwest 321 369 10,000  Level Potomac TRACON
07:41AM 39.0500 -76.8167 229° Southwest 315 362 10,000 -780 Level Potomac TRACON
07:42AM 38.9833 -76.8833 218° Southwest 256 295 8,600 -1,680 Descending Potomac TRACON
07:43AM 38.9333 -76.9333 218° Southwest 255 293 6,700 -1,560 Descending Potomac TRACON
07:44AM 38.8667 -76.9500 191° South 256 295 5,700 -1,500 Descending Potomac TRACON
07:45AM 38.8000 -76.9500 180° South 261 300 3,900 -1,920 Descending Potomac TRACON
07:46AM 38.7500 -77.0000 218° Southwest 249 287 2,100 -1,800 Descending Potomac TRACON